createdAt,value
2023-03-10T05:38:32.426Z,67.68
2023-03-10T05:40:35.357Z,67.16
2023-03-10T05:42:38.294Z,66.50
2023-03-10T05:44:41.300Z,66.50
2023-03-10T05:46:44.285Z,65.78
2023-03-10T05:48:47.181Z,65.75
2023-03-10T05:50:58.770Z,65.18
2023-03-10T05:53:01.591Z,65.08
2023-03-10T05:55:07.523Z,64.81
2023-03-10T05:57:12.857Z,65.17
2023-03-10T05:59:17.091Z,64.74
2023-03-10T06:01:20.269Z,64.54
2023-03-10T06:03:24.814Z,64.36
2023-03-10T06:05:27.800Z,64.61
2023-03-10T06:07:30.649Z,64.42
2023-03-10T06:09:34.017Z,64.50
2023-03-10T06:11:38.242Z,64.35
2023-03-10T06:13:41.063Z,64.36
2023-03-10T06:15:44.001Z,64.04
2023-03-10T06:17:46.777Z,64.19
2023-03-10T06:19:49.569Z,64.08
2023-03-10T06:21:52.416Z,63.82
2023-03-10T06:23:55.380Z,64.04
2023-03-10T06:25:58.720Z,63.98
2023-03-10T06:28:03.109Z,63.75
2023-03-10T06:30:07.043Z,63.87
2023-03-10T06:32:09.914Z,63.42
2023-03-10T06:34:12.869Z,63.74
2023-03-10T06:36:16.874Z,63.70
2023-03-10T06:38:20.391Z,63.83
2023-03-10T06:40:23.627Z,63.50
2023-03-10T06:42:26.510Z,63.32
2023-03-10T06:44:30.694Z,63.48
2023-03-10T06:46:33.532Z,63.65
2023-03-10T06:48:37.190Z,63.44
2023-03-10T06:50:42.799Z,63.28
2023-03-10T06:52:45.819Z,63.38
2023-03-10T06:54:48.741Z,63.25
2023-03-10T06:56:51.658Z,63.16
2023-03-10T06:58:54.514Z,62.85
2023-03-10T07:00:59.264Z,62.75
2023-03-10T07:03:02.332Z,62.55
2023-03-10T07:05:06.205Z,62.63
2023-03-10T07:07:09.155Z,62.23
2023-03-10T07:09:12.012Z,62.15
2023-03-10T07:11:16.677Z,61.84
2023-03-10T07:13:19.639Z,61.64
2023-03-10T07:15:23.376Z,61.58
2023-03-10T07:17:27.739Z,61.22
2023-03-10T07:19:30.648Z,61.24
2023-03-10T07:21:33.639Z,61.04
2023-03-10T07:23:36.865Z,60.92
2023-03-10T07:25:40.622Z,60.94
2023-03-10T07:27:43.739Z,60.74
2023-03-10T07:29:46.678Z,60.79
2023-03-10T07:31:49.610Z,60.37
2023-03-10T07:33:53.841Z,60.36
2023-03-10T07:35:56.861Z,59.96
2023-03-10T07:37:59.979Z,60.26
2023-03-10T07:40:02.875Z,59.84
2023-03-10T07:42:06.177Z,60.13
2023-03-10T07:44:09.405Z,59.85
2023-03-10T07:46:15.326Z,59.68
2023-03-10T07:48:19.219Z,59.35
2023-03-10T07:50:27.319Z,59.41
2023-03-10T07:52:32.640Z,59.30
2023-03-10T07:54:35.507Z,58.95
2023-03-10T07:56:38.353Z,59.13
2023-03-10T07:58:41.800Z,59.57
2023-03-10T08:00:44.826Z,59.52
2023-03-10T08:02:47.715Z,59.43
2023-03-10T08:04:50.653Z,59.09
2023-03-10T08:06:55.119Z,59.19
2023-03-10T08:08:58.763Z,59.49
2023-03-10T08:11:03.903Z,59.58
2023-03-10T08:13:06.747Z,59.99
2023-03-10T08:15:16.192Z,60.32
2023-03-10T08:17:19.718Z,60.44
2023-03-10T08:19:24.862Z,60.69
2023-03-10T08:21:27.717Z,60.46
2023-03-10T08:23:32.298Z,60.59
2023-03-10T08:25:35.554Z,60.63
2023-03-10T08:27:38.622Z,60.57
2023-03-10T08:29:42.574Z,60.47
2023-03-10T08:31:45.663Z,60.23
2023-03-10T08:33:49.625Z,60.44
2023-03-10T08:35:52.661Z,60.41
2023-03-10T08:37:55.944Z,60.35
2023-03-10T08:40:00.977Z,60.01
2023-03-10T08:42:07.222Z,60.28
2023-03-10T08:44:15.168Z,60.06
2023-03-10T08:46:19.822Z,60.03
2023-03-10T08:48:24.476Z,59.93
2023-03-10T08:50:27.493Z,59.95
2023-03-10T08:52:30.525Z,60.00
2023-03-10T08:54:33.886Z,59.87
2023-03-10T08:56:38.192Z,60.08
2023-03-10T08:58:41.433Z,60.48
2023-03-10T09:00:44.775Z,60.73
2023-03-10T09:02:49.022Z,61.03
2023-03-10T09:04:52.291Z,61.27
2023-03-10T09:06:55.381Z,61.43
2023-03-10T09:08:58.456Z,61.42
2023-03-10T09:11:01.496Z,61.38
2023-03-10T09:13:13.804Z,61.84
2023-03-10T09:15:17.438Z,61.60
2023-03-10T09:17:20.587Z,62.05
2023-03-10T09:19:24.253Z,61.72
2023-03-10T09:21:28.336Z,61.79
2023-03-10T09:23:31.475Z,61.84
2023-03-10T09:25:34.353Z,62.07
2023-03-10T09:27:37.640Z,62.18
2023-03-10T09:29:43.594Z,62.14
2023-03-10T09:31:49.371Z,62.16
2023-03-10T09:33:52.653Z,62.07
2023-03-10T09:36:06.327Z,62.42
2023-03-10T09:38:10.248Z,62.00
2023-03-10T09:40:18.793Z,62.18
2023-03-10T09:42:43.692Z,62.05
2023-03-10T09:44:59.602Z,61.84
2023-03-10T09:47:23.392Z,61.98
2023-03-10T09:49:34.681Z,61.88
2023-03-10T09:51:42.656Z,61.90
2023-03-10T09:53:57.182Z,61.74
2023-03-10T09:56:01.345Z,61.63
2023-03-10T09:58:04.826Z,61.74
2023-03-10T10:00:14.068Z,61.41
2023-03-10T10:02:24.479Z,61.67
2023-03-10T10:04:32.986Z,61.61
2023-03-10T10:06:40.334Z,61.33
2023-03-10T10:08:54.910Z,61.16
2023-03-10T10:11:07.048Z,60.98
2023-03-10T10:13:14.699Z,61.12
2023-03-10T10:15:22.544Z,60.76
2023-03-10T10:17:55.170Z,60.63
2023-03-10T10:20:07.627Z,60.53
2023-03-10T10:22:20.387Z,60.38
2023-03-10T10:24:24.161Z,60.60
2023-03-10T10:26:29.216Z,60.71
2023-03-10T10:28:42.873Z,60.57
2023-03-10T10:30:55.277Z,60.38
2023-03-10T10:33:01.270Z,60.37
2023-03-10T10:35:18.165Z,60.43
2023-03-10T10:37:25.381Z,60.57
2023-03-10T10:39:33.029Z,60.55
2023-03-10T10:41:36.621Z,60.68
2023-03-10T10:43:42.086Z,60.47
2023-03-10T10:45:47.999Z,60.25
2023-03-10T10:47:58.805Z,60.19
2023-03-10T10:50:19.930Z,60.25
2023-03-10T10:52:25.888Z,59.93
2023-03-10T10:54:33.896Z,60.02
2023-03-10T10:56:37.388Z,59.86
2023-03-10T10:58:43.088Z,59.73
2023-03-10T11:00:57.629Z,60.02
2023-03-10T11:03:02.891Z,59.62
2023-03-10T11:05:16.695Z,59.48
2023-03-10T11:07:25.050Z,59.31
2023-03-10T11:09:28.532Z,59.29
2023-03-10T11:11:41.162Z,59.22
2023-03-10T11:14:08.345Z,59.04
2023-03-10T11:16:18.140Z,58.54
2023-03-10T11:18:31.129Z,58.15
2023-03-10T11:20:55.812Z,58.46
2023-03-10T11:23:12.553Z,57.78
2023-03-10T11:25:24.648Z,58.34
2023-03-10T11:27:38.748Z,58.09
2023-03-10T11:30:02.538Z,57.75
2023-03-10T11:32:15.790Z,57.75
2023-03-10T11:34:25.888Z,57.88
2023-03-10T11:36:49.641Z,57.51
2023-03-10T11:39:03.350Z,57.51
2023-03-10T11:41:15.336Z,57.63
2023-03-10T11:43:29.232Z,57.41
2023-03-10T11:45:39.523Z,57.41
2023-03-10T11:47:55.417Z,57.03
2023-03-10T11:50:14.330Z,57.46
2023-03-10T11:52:25.556Z,57.18
2023-03-10T11:54:34.621Z,57.05
2023-03-10T11:56:39.356Z,57.11
2023-03-10T11:58:49.573Z,57.03
2023-03-10T12:00:57.211Z,56.83
2023-03-10T12:03:09.657Z,56.73
2023-03-10T12:05:23.808Z,56.75
2023-03-10T12:07:33.359Z,56.38
2023-03-10T12:09:42.406Z,56.20
2023-03-10T12:11:46.331Z,56.77
2023-03-10T12:14:00.152Z,56.40
2023-03-10T12:16:05.152Z,56.50
2023-03-10T12:18:09.573Z,56.74
2023-03-10T12:20:30.348Z,56.80
2023-03-10T12:22:41.986Z,56.46
2023-03-10T12:24:49.286Z,56.61
2023-03-10T12:27:00.916Z,56.59
2023-03-10T12:29:33.132Z,56.12
2023-03-10T12:31:56.797Z,56.17
2023-03-10T12:34:15.529Z,56.05
2023-03-10T12:36:27.891Z,55.88
2023-03-10T12:38:46.932Z,55.70
2023-03-10T12:40:50.887Z,55.68
2023-03-10T12:42:54.216Z,55.83
2023-03-10T12:45:08.795Z,55.20
2023-03-10T12:47:26.947Z,55.57
2023-03-10T12:49:39.437Z,55.37
2023-03-10T12:51:47.943Z,55.32
2023-03-10T12:53:58.223Z,55.57
2023-03-10T12:56:25.077Z,55.30
2023-03-10T12:58:28.809Z,55.23
2023-03-10T13:00:45.065Z,55.16
2023-03-10T13:02:52.184Z,55.33
2023-03-10T13:05:01.501Z,55.17
2023-03-10T13:07:16.908Z,55.21
2023-03-10T13:09:26.528Z,55.12
2023-03-10T13:11:36.738Z,55.20
2023-03-10T13:13:41.116Z,55.21
2023-03-10T13:15:44.389Z,55.35
2023-03-10T13:17:47.286Z,54.92
2023-03-10T13:20:04.135Z,55.19
2023-03-10T13:22:17.619Z,55.08
2023-03-10T13:24:25.321Z,54.90
2023-03-10T13:26:28.597Z,54.93
2023-03-10T13:28:34.479Z,54.91
2023-03-10T13:30:38.179Z,54.84
2023-03-10T13:32:42.256Z,54.72
2023-03-10T13:34:45.195Z,54.63
2023-03-10T13:36:48.929Z,54.56
2023-03-10T13:38:53.408Z,54.18
2023-03-10T13:41:02.336Z,54.15
2023-03-10T13:43:07.494Z,53.92
2023-03-10T13:45:22.762Z,53.86
2023-03-10T13:47:28.033Z,54.30
2023-03-10T13:49:34.080Z,54.01
2023-03-10T13:51:41.005Z,53.96
2023-03-10T13:53:44.409Z,54.25
2023-03-10T13:55:48.676Z,54.01
2023-03-10T13:57:52.327Z,53.75
2023-03-10T13:59:58.007Z,53.44
2023-03-10T14:02:03.084Z,53.41
2023-03-10T14:04:08.685Z,53.45
2023-03-10T14:06:14.524Z,53.38
2023-03-10T14:08:25.315Z,53.06
2023-03-10T14:10:28.784Z,53.01
2023-03-10T14:12:43.968Z,52.66
2023-03-10T14:14:46.994Z,52.83
2023-03-10T14:16:52.867Z,52.31
2023-03-10T14:18:55.924Z,52.42
2023-03-10T14:20:58.773Z,52.41
2023-03-10T14:23:26.623Z,52.14
2023-03-10T14:25:29.890Z,52.34
2023-03-10T14:27:35.401Z,52.05
2023-03-10T14:29:42.584Z,51.78
2023-03-10T14:31:51.693Z,51.85
2023-03-10T14:33:54.637Z,51.87
2023-03-10T14:36:00.059Z,51.57
2023-03-10T14:38:03.376Z,51.57
2023-03-10T14:40:08.044Z,51.61
2023-03-10T14:42:20.293Z,51.50
2023-03-10T14:44:23.223Z,51.63
2023-03-10T14:46:27.945Z,51.15
2023-03-10T14:48:34.538Z,51.20
2023-03-10T14:50:37.467Z,51.24
2023-03-10T14:52:40.546Z,51.06
2023-03-10T14:54:43.619Z,50.84
2023-03-10T14:56:46.878Z,51.07
2023-03-10T14:58:51.650Z,51.07
2023-03-10T15:00:54.816Z,50.62
2023-03-10T15:02:59.353Z,50.52
2023-03-10T15:05:02.396Z,50.69
2023-03-10T15:07:05.351Z,50.55
2023-03-10T15:09:08.329Z,50.50
2023-03-10T15:11:11.513Z,50.67
2023-03-10T15:13:14.978Z,50.57
2023-03-10T15:15:19.649Z,50.74
2023-03-10T15:17:24.216Z,50.51
2023-03-10T15:19:30.219Z,50.46
2023-03-10T15:21:33.075Z,50.42
2023-03-10T15:23:36.156Z,50.44
2023-03-10T15:25:39.088Z,50.58
2023-03-10T15:27:42.016Z,50.37
2023-03-10T15:29:44.921Z,50.38
2023-03-10T15:31:47.939Z,50.46
2023-03-10T15:33:51.229Z,50.22
2023-03-10T15:35:56.185Z,50.27
2023-03-10T15:37:59.654Z,50.22
2023-03-10T15:40:02.493Z,50.33
2023-03-10T15:42:05.428Z,50.21
2023-03-10T15:44:08.740Z,50.17
2023-03-10T15:46:12.679Z,50.43
2023-03-10T15:48:15.940Z,50.08
2023-03-10T15:50:20.169Z,50.26
2023-03-10T15:52:24.422Z,50.38
2023-03-10T15:54:27.311Z,50.12
2023-03-10T15:56:30.691Z,50.16
2023-03-10T15:58:34.435Z,50.11
2023-03-10T16:00:37.316Z,50.31
2023-03-10T16:02:40.340Z,50.18
2023-03-10T16:04:46.561Z,49.95
2023-03-10T16:06:49.627Z,49.67
2023-03-10T16:08:56.150Z,49.81
2023-03-10T16:10:58.914Z,49.96
2023-03-10T16:13:02.178Z,49.66
2023-03-10T16:15:05.683Z,49.63
2023-03-10T16:17:08.810Z,49.88
2023-03-10T16:19:11.623Z,49.68
2023-03-10T16:21:17.510Z,49.83
2023-03-10T16:23:22.178Z,49.40
2023-03-10T16:25:31.380Z,49.56
2023-03-10T16:27:34.342Z,49.33
2023-03-10T16:29:37.474Z,49.30
2023-03-10T16:31:40.987Z,49.58
2023-03-10T16:33:44.570Z,49.27
2023-03-10T16:35:47.463Z,49.20
2023-03-10T16:37:50.274Z,49.28
2023-03-10T16:39:54.305Z,49.16
2023-03-10T16:41:58.652Z,48.99
2023-03-10T16:44:05.025Z,49.22
2023-03-10T16:46:11.415Z,49.29
2023-03-10T16:48:14.423Z,49.40
2023-03-10T16:50:17.844Z,49.41
2023-03-10T16:52:20.796Z,49.55
2023-03-10T16:54:24.287Z,49.70
2023-03-10T16:56:28.984Z,49.43
2023-03-10T16:58:34.064Z,49.44
2023-03-10T17:00:37.948Z,49.38
2023-03-10T17:02:40.931Z,49.25
2023-03-10T17:04:44.665Z,49.29
2023-03-10T17:06:48.566Z,48.98
2023-03-10T17:08:52.030Z,49.04
2023-03-10T17:10:54.925Z,48.88
2023-03-10T17:12:58.679Z,48.56
2023-03-10T17:15:03.176Z,48.65
2023-03-10T17:17:07.827Z,48.69
2023-03-10T17:19:14.270Z,48.45
2023-03-10T17:21:19.285Z,48.49
2023-03-10T17:23:23.649Z,48.67
2023-03-10T17:25:26.623Z,48.74
2023-03-10T17:27:29.695Z,48.67
2023-03-10T17:29:32.492Z,48.63
2023-03-10T17:31:36.850Z,48.41
2023-03-10T17:33:41.818Z,48.58
2023-03-10T17:35:45.328Z,48.54
2023-03-10T17:37:48.408Z,48.49
2023-03-10T17:39:51.338Z,48.29
2023-03-10T17:41:55.566Z,48.01
2023-03-10T17:43:58.862Z,48.00
2023-03-10T17:46:03.461Z,48.26
2023-03-10T17:48:08.619Z,48.42
2023-03-10T17:50:12.857Z,48.12
2023-03-10T17:52:15.601Z,48.13
2023-03-10T17:54:21.170Z,47.99
2023-03-10T17:56:24.542Z,48.07
2023-03-10T17:58:27.441Z,48.02
2023-03-10T18:00:30.394Z,48.19
2023-03-10T18:02:33.285Z,48.06
2023-03-10T18:04:40.228Z,47.89
2023-03-10T18:06:43.347Z,47.53
2023-03-10T18:08:46.588Z,47.46
2023-03-10T18:11:00.379Z,47.66
2023-03-10T18:13:04.177Z,47.52
2023-03-10T18:15:08.437Z,47.92
2023-03-10T18:17:11.481Z,47.77
2023-03-10T18:19:21.284Z,47.81
2023-03-10T18:21:26.310Z,47.88
2023-03-10T18:23:30.337Z,47.74
2023-03-10T18:25:33.316Z,48.00
2023-03-10T18:27:36.284Z,47.86
2023-03-10T18:29:39.211Z,47.94
2023-03-10T18:31:42.480Z,48.42
2023-03-10T18:33:45.268Z,48.16
2023-03-10T18:35:48.598Z,48.24
2023-03-10T18:37:53.054Z,48.75
2023-03-10T18:39:57.818Z,48.56
2023-03-10T18:42:00.711Z,48.80
2023-03-10T18:44:03.610Z,48.85
2023-03-10T18:46:06.887Z,48.90
2023-03-10T18:48:09.789Z,49.01
2023-03-10T18:50:14.083Z,48.82
2023-03-10T18:52:17.068Z,48.82
2023-03-10T18:54:21.263Z,49.00
2023-03-10T18:56:25.792Z,49.33
2023-03-10T18:58:29.790Z,49.19
2023-03-10T19:00:32.848Z,49.40
2023-03-10T19:02:36.267Z,49.83
2023-03-10T19:04:40.243Z,49.88
2023-03-10T19:06:43.128Z,49.98
2023-03-10T19:08:45.942Z,50.61
2023-03-10T19:10:55.340Z,50.59
2023-03-10T19:12:58.566Z,51.10
2023-03-10T19:15:05.309Z,50.93
2023-03-10T19:17:08.182Z,51.40
2023-03-10T19:19:11.267Z,51.07
2023-03-10T19:21:14.179Z,51.56
2023-03-10T19:23:17.365Z,51.55
2023-03-10T19:25:21.048Z,51.79
2023-03-10T19:27:25.489Z,51.78
2023-03-10T19:29:28.244Z,52.04
2023-03-10T19:31:31.230Z,52.18
2023-03-10T19:33:34.238Z,52.34
2023-03-10T19:35:40.178Z,52.42
2023-03-10T19:37:43.922Z,52.54
2023-03-10T19:39:46.744Z,52.58
2023-03-10T19:41:49.555Z,52.78
2023-03-10T19:43:54.583Z,52.88
2023-03-10T19:46:01.988Z,52.99
2023-03-10T19:48:05.697Z,53.19
2023-03-10T19:50:10.242Z,53.30
2023-03-10T19:52:13.071Z,53.44
2023-03-10T19:54:15.909Z,53.38
2023-03-10T19:56:20.042Z,53.72
2023-03-10T19:58:23.855Z,53.91
2023-03-10T20:00:31.390Z,53.82
2023-03-10T20:02:34.538Z,53.99
2023-03-10T20:04:39.283Z,53.68
2023-03-10T20:06:42.659Z,53.97
2023-03-10T20:08:45.628Z,53.90
2023-03-10T20:10:48.797Z,54.15
2023-03-10T20:12:52.183Z,54.31
2023-03-10T20:14:58.736Z,54.13
2023-03-10T20:17:02.982Z,54.22
2023-03-10T20:19:05.821Z,54.27
2023-03-10T20:21:09.675Z,54.49
2023-03-10T20:23:12.717Z,54.10
2023-03-10T20:25:18.001Z,54.18
2023-03-10T20:27:22.923Z,54.29
2023-03-10T20:29:25.805Z,54.37
2023-03-10T20:31:33.873Z,54.40
2023-03-10T20:33:38.240Z,54.06
2023-03-10T20:35:40.992Z,54.41
2023-03-10T20:37:44.149Z,54.17
2023-03-10T20:39:46.932Z,54.14
2023-03-10T20:41:50.782Z,54.16
2023-03-10T20:43:55.267Z,54.46
2023-03-10T20:45:58.140Z,54.58
2023-03-10T20:48:01.181Z,54.43
2023-03-10T20:50:06.370Z,54.47
2023-03-10T20:52:09.193Z,54.42
2023-03-10T20:54:12.054Z,54.64
2023-03-10T20:56:16.566Z,54.78
2023-03-10T20:58:19.732Z,54.67
2023-03-10T21:00:25.168Z,54.73
2023-03-10T21:02:28.058Z,54.44
2023-03-10T21:04:31.833Z,54.75
2023-03-10T21:06:37.397Z,54.76
2023-03-10T21:08:40.469Z,54.72
2023-03-10T21:10:44.550Z,54.85
2023-03-10T21:12:47.454Z,54.97
2023-03-10T21:14:50.381Z,55.03
2023-03-10T21:16:55.186Z,55.08
2023-03-10T21:18:58.100Z,55.11
2023-03-10T21:21:07.082Z,54.94
2023-03-10T21:23:11.517Z,55.14
2023-03-10T21:25:17.544Z,55.18
2023-03-10T21:27:21.096Z,54.94
2023-03-10T21:29:24.163Z,55.19
2023-03-10T21:31:27.528Z,55.07
2023-03-10T21:33:30.417Z,55.17
2023-03-10T21:35:36.656Z,55.25
2023-03-10T21:37:42.082Z,55.29
2023-03-10T21:39:46.529Z,55.27
2023-03-10T21:41:49.717Z,55.47
2023-03-10T21:43:55.552Z,55.30
2023-03-10T21:45:58.423Z,55.64
2023-03-10T21:48:03.081Z,55.96
2023-03-10T21:50:06.904Z,55.97
2023-03-10T21:52:11.527Z,55.82
2023-03-10T21:54:14.898Z,56.15
2023-03-10T21:56:19.926Z,56.24
2023-03-10T21:58:24.869Z,56.04
2023-03-10T22:00:27.966Z,55.85
2023-03-10T22:02:35.448Z,56.16
2023-03-10T22:04:38.582Z,56.18
2023-03-10T22:06:41.602Z,55.94
2023-03-10T22:08:44.506Z,56.09
2023-03-10T22:10:47.817Z,56.05
2023-03-10T22:12:52.242Z,55.97
2023-03-10T22:14:57.616Z,56.13
2023-03-10T22:17:00.466Z,56.14
2023-03-10T22:19:03.905Z,56.28
2023-03-10T22:21:07.178Z,56.06
2023-03-10T22:23:10.435Z,56.24
2023-03-10T22:25:14.552Z,56.34
2023-03-10T22:27:18.122Z,56.42
2023-03-10T22:29:22.487Z,56.45
2023-03-10T22:31:25.597Z,56.32
2023-03-10T22:33:28.547Z,56.22
2023-03-10T22:35:31.331Z,56.35
2023-03-10T22:37:34.351Z,56.56
2023-03-10T22:39:38.523Z,56.60
2023-03-10T22:41:41.588Z,56.42
2023-03-10T22:43:44.585Z,56.68
2023-03-10T22:45:48.905Z,56.62
2023-03-10T22:47:54.574Z,56.61
2023-03-10T22:49:57.550Z,56.50
2023-03-10T22:52:00.458Z,56.66
2023-03-10T22:54:03.481Z,56.38
2023-03-10T22:56:08.187Z,56.61
2023-03-10T22:58:12.157Z,56.90
2023-03-10T23:00:19.671Z,56.68
2023-03-10T23:02:24.164Z,56.52
2023-03-10T23:04:27.760Z,56.52
2023-03-10T23:06:33.480Z,56.94
2023-03-10T23:08:37.430Z,56.86
2023-03-10T23:10:42.437Z,56.97
2023-03-10T23:12:45.739Z,56.92
2023-03-10T23:14:48.491Z,57.07
2023-03-10T23:16:51.289Z,56.92
2023-03-10T23:18:55.400Z,56.97
2023-03-10T23:20:58.322Z,57.04
2023-03-10T23:23:03.148Z,57.07
2023-03-10T23:25:06.702Z,57.20
2023-03-10T23:27:09.452Z,56.84
2023-03-10T23:29:12.458Z,56.94
2023-03-10T23:31:17.101Z,57.14
2023-03-10T23:33:23.076Z,57.28
2023-03-10T23:35:29.984Z,56.93
2023-03-10T23:37:32.907Z,57.34
2023-03-10T23:39:35.768Z,57.35
2023-03-10T23:41:38.526Z,57.40
2023-03-10T23:43:42.174Z,57.18
2023-03-10T23:45:45.199Z,57.55
2023-03-10T23:47:49.572Z,57.35
2023-03-10T23:49:52.317Z,57.66
2023-03-10T23:51:56.619Z,57.25
2023-03-10T23:53:59.329Z,57.78
2023-03-10T23:56:02.099Z,57.49
2023-03-10T23:58:05.592Z,57.66
